Time;durP1;ratioP1;P1;durP2;ratioP2;P2;SDS_P1;SDS_P2;PMS_P1;PMS_P2;Temp;Humidity;BMP_temperature;BMP_pressure;BME280_temperature;BME280_humidity;BME280_pressure;Samples;Min_cycle;Max_cycle;Signal;HPM_P1;HPM_P2
2021/12/11 00:00:46;;;;;;;0.60;0.60;;;6.00;99.90;;;;;;5047729;28;20295;-61
2021/12/11 00:03:18;;;;;;;0.70;0.70;;;6.00;99.90;;;;;;5049258;28;20306;-60
2021/12/11 00:05:57;;;;;;;0.60;0.60;;;5.90;99.90;;;;;;5049431;28;20200;-61
2021/12/11 00:08:27;;;;;;;0.60;0.60;;;5.90;99.90;;;;;;5045054;28;20299;-61
2021/12/11 00:10:58;;;;;;;0.90;0.90;;;5.90;99.90;;;;;;5044033;28;20254;-61
2021/12/11 00:13:28;;;;;;;0.50;0.50;;;5.90;99.90;;;;;;5033392;28;20286;-61
2021/12/11 00:15:56;;;;;;;0.57;0.57;;;5.90;99.90;;;;;;5034541;28;20192;-59
2021/12/11 00:18:26;;;;;;;0.60;0.60;;;5.90;99.90;;;;;;5032198;28;20320;-61
2021/12/11 00:20:56;;;;;;;0.60;0.60;;;5.90;99.90;;;;;;5046244;28;20208;-61
2021/12/11 00:23:31;;;;;;;0.47;0.47;;;5.90;99.90;;;;;;5048473;28;20272;-61
2021/12/11 00:26:00;;;;;;;0.60;0.60;;;5.90;99.90;;;;;;5047877;28;20279;-59
2021/12/11 00:28:28;;;;;;;0.60;0.60;;;5.90;99.90;;;;;;5038230;28;20224;-61
2021/12/11 00:30:55;;;;;;;0.70;0.60;;;5.90;99.90;;;;;;5045891;28;20239;-61
2021/12/11 00:33:26;;;;;;;0.47;0.47;;;5.90;99.90;;;;;;5050603;28;20256;-61
2021/12/11 00:35:56;;;;;;;0.70;0.70;;;5.90;99.90;;;;;;5048038;28;20200;-61
2021/12/11 00:38:32;;;;;;;0.70;0.70;;;5.80;99.90;;;;;;5055364;28;20246;-61
2021/12/11 00:41:01;;;;;;;0.60;0.60;;;5.90;99.90;;;;;;5056825;28;20200;-59
2021/12/11 00:43:34;;;;;;;0.50;0.50;;;5.90;99.90;;;;;;5056259;28;20255;-62
2021/12/11 00:46:01;;;;;;;0.50;0.50;;;5.90;99.90;;;;;;5055021;28;20204;-59
2021/12/11 00:48:29;;;;;;;0.70;0.70;;;5.90;99.90;;;;;;5050129;28;20302;-61
2021/12/11 00:50:59;;;;;;;0.50;0.50;;;5.90;99.90;;;;;;5052173;28;20578;-62
2021/12/11 00:53:29;;;;;;;0.50;0.50;;;5.90;99.90;;;;;;5050057;28;20724;-60
2021/12/11 00:55:59;;;;;;;0.60;0.60;;;6.00;99.90;;;;;;5050630;28;20241;-61
2021/12/11 00:58:30;;;;;;;0.60;0.60;;;5.90;99.90;;;;;;5051468;28;20286;-61
2021/12/11 01:01:01;;;;;;;0.60;0.60;;;5.90;99.90;;;;;;5049810;28;20719;-59
2021/12/11 01:03:31;;;;;;;0.70;0.70;;;6.00;99.90;;;;;;5046251;28;20227;-60
2021/12/11 01:06:01;;;;;;;0.67;0.60;;;5.90;99.90;;;;;;5050273;28;20329;-60
2021/12/11 01:08:32;;;;;;;0.60;0.60;;;5.90;99.90;;;;;;5038503;28;20641;-60
2021/12/11 01:11:07;;;;;;;0.60;0.60;;;5.80;99.90;;;;;;5042909;28;20231;-61
2021/12/11 01:13:39;;;;;;;0.70;0.70;;;5.80;99.90;;;;;;5040059;28;20227;-60
2021/12/11 01:16:12;;;;;;;0.60;0.60;;;5.80;99.90;;;;;;5035220;28;20210;-61
2021/12/11 01:18:43;;;;;;;0.60;0.60;;;5.90;99.90;;;;;;5036655;28;20205;-60
2021/12/11 01:21:31;;;;;;;0.60;0.60;;;5.80;99.90;;;;;;5039457;28;20292;-60
2021/12/11 01:24:14;;;;;;;0.60;0.60;;;5.80;99.90;;;;;;5040038;28;20282;-60
2021/12/11 01:26:46;;;;;;;0.57;0.57;;;5.90;99.90;;;;;;5039881;28;20680;-61
2021/12/11 01:29:16;;;;;;;0.70;0.70;;;5.80;99.90;;;;;;5043954;28;20227;-62
2021/12/11 01:31:43;;;;;;;0.63;0.63;;;5.80;99.90;;;;;;5036872;28;20676;-60
2021/12/11 01:34:11;;;;;;;0.77;0.70;;;5.90;99.90;;;;;;5036428;28;20919;-60
2021/12/11 01:36:39;;;;;;;0.60;0.60;;;5.90;99.90;;;;;;5040956;28;20231;-60
2021/12/11 01:39:11;;;;;;;0.50;0.50;;;5.90;99.90;;;;;;5047908;28;20288;-60
2021/12/11 01:41:38;;;;;;;0.53;0.53;;;5.90;99.90;;;;;;5044992;28;20286;-61
2021/12/11 01:44:11;;;;;;;0.50;0.50;;;5.90;99.90;;;;;;5040624;28;20218;-60
2021/12/11 01:46:40;;;;;;;0.80;0.80;;;6.00;99.90;;;;;;5040214;28;21627;-60
2021/12/11 01:49:13;;;;;;;0.70;0.70;;;6.00;99.90;;;;;;5037176;28;20315;-58
2021/12/11 01:51:45;;;;;;;0.67;0.67;;;6.00;99.90;;;;;;5038969;28;20319;-59
2021/12/11 01:54:17;;;;;;;0.63;0.63;;;5.90;99.90;;;;;;5037216;28;20225;-60
2021/12/11 01:56:47;;;;;;;0.70;0.70;;;6.00;99.90;;;;;;5040689;28;20192;-61
2021/12/11 01:59:18;;;;;;;0.70;0.70;;;5.90;99.90;;;;;;5043977;28;20199;-60
2021/12/11 02:01:50;;;;;;;0.70;0.70;;;5.80;99.90;;;;;;5039774;28;20311;-61
2021/12/11 02:04:20;;;;;;;0.80;0.80;;;5.80;99.90;;;;;;5036534;28;20208;-60
2021/12/11 02:06:50;;;;;;;0.70;0.70;;;5.80;99.90;;;;;;5036653;28;20715;-60
2021/12/11 02:09:21;;;;;;;0.60;0.60;;;5.80;99.90;;;;;;5040685;28;20804;-59
2021/12/11 02:11:50;;;;;;;0.60;0.60;;;5.80;99.90;;;;;;5040248;28;20274;-58
2021/12/11 02:14:32;;;;;;;0.70;0.70;;;5.70;99.90;;;;;;5040620;28;20296;-59
2021/12/11 02:17:02;;;;;;;0.70;0.70;;;5.70;99.90;;;;;;5038333;28;21739;-60
2021/12/11 02:19:38;;;;;;;0.60;0.60;;;5.70;99.90;;;;;;5035799;28;20200;-59
2021/12/11 02:22:15;;;;;;;0.73;0.73;;;5.70;99.90;;;;;;5034435;28;20264;-60
2021/12/11 02:24:45;;;;;;;0.70;0.70;;;5.70;99.90;;;;;;5046122;28;20196;-60
2021/12/11 02:27:17;;;;;;;0.70;0.70;;;5.70;99.90;;;;;;5051036;28;20290;-59
2021/12/11 02:29:49;;;;;;;0.70;0.70;;;5.70;99.90;;;;;;5051768;28;20301;-59
2021/12/11 02:32:29;;;;;;;0.60;0.60;;;5.70;99.90;;;;;;5050731;28;20312;-59
2021/12/11 02:34:59;;;;;;;0.60;0.60;;;5.70;99.90;;;;;;5051466;28;20203;-59
2021/12/11 02:37:36;;;;;;;0.67;0.67;;;5.70;99.90;;;;;;5051123;28;20242;-59
2021/12/11 02:40:11;;;;;;;0.67;0.67;;;5.70;99.90;;;;;;5050719;28;20195;-59
2021/12/11 02:42:41;;;;;;;0.70;0.70;;;5.80;99.90;;;;;;5049213;28;20254;-60
2021/12/11 02:45:16;;;;;;;0.80;0.80;;;5.80;99.90;;;;;;5053471;28;20290;-60
2021/12/11 02:47:47;;;;;;;0.80;0.80;;;5.80;99.90;;;;;;5052619;28;20227;-60
2021/12/11 02:50:19;;;;;;;0.70;0.70;;;5.80;99.90;;;;;;5051888;28;20211;-60
2021/12/11 02:52:50;;;;;;;0.63;0.63;;;5.70;99.90;;;;;;5054111;28;20254;-59
2021/12/11 02:55:21;;;;;;;0.70;0.70;;;5.70;99.90;;;;;;5053063;28;20279;-59
2021/12/11 02:57:52;;;;;;;0.70;0.70;;;5.60;99.90;;;;;;5047800;28;20262;-59
2021/12/11 03:00:21;;;;;;;0.60;0.60;;;5.60;99.90;;;;;;5033886;28;20601;-59
2021/12/11 03:02:59;;;;;;;0.63;0.63;;;5.60;99.90;;;;;;5038883;28;20251;-59
2021/12/11 03:05:35;;;;;;;0.70;0.70;;;5.50;99.90;;;;;;5039317;28;20228;-59
2021/12/11 03:08:05;;;;;;;0.83;0.83;;;5.40;99.90;;;;;;5036813;28;20196;-60
2021/12/11 03:10:34;;;;;;;0.70;0.70;;;5.20;99.90;;;;;;5035602;28;20278;-60
2021/12/11 03:13:00;;;;;;;0.90;0.90;;;5.20;99.90;;;;;;5038077;28;20220;-59
2021/12/11 03:15:27;;;;;;;0.90;0.90;;;5.10;99.90;;;;;;5036399;28;20200;-61
2021/12/11 03:17:55;;;;;;;1.00;1.00;;;5.00;99.90;;;;;;5037910;28;20204;-61
2021/12/11 03:20:23;;;;;;;0.90;0.90;;;5.00;99.90;;;;;;5038882;28;20255;-59
2021/12/11 03:22:51;;;;;;;0.90;0.90;;;4.90;99.90;;;;;;5037916;28;20354;-60
2021/12/11 03:25:24;;;;;;;1.10;1.10;;;4.80;99.90;;;;;;5036387;28;20213;-60
2021/12/11 03:27:51;;;;;;;0.83;0.83;;;4.80;99.90;;;;;;5041252;28;20200;-60
2021/12/11 03:30:22;;;;;;;0.90;0.90;;;4.80;99.90;;;;;;5036281;28;20209;-60
2021/12/11 03:32:50;;;;;;;1.10;1.10;;;4.80;99.90;;;;;;5041858;28;20248;-59
2021/12/11 03:35:18;;;;;;;0.90;0.90;;;4.70;99.90;;;;;;5036660;28;20674;-59
2021/12/11 03:37:45;;;;;;;1.10;1.10;;;4.70;99.90;;;;;;5038107;28;20216;-58
2021/12/11 03:40:13;;;;;;;1.00;1.00;;;4.70;99.90;;;;;;5037230;28;20797;-60
2021/12/11 03:42:43;;;;;;;0.90;0.90;;;4.70;99.90;;;;;;5044870;28;20306;-59
2021/12/11 03:45:13;;;;;;;0.80;0.80;;;4.70;99.90;;;;;;5052560;28;20184;-59
2021/12/11 03:47:43;;;;;;;0.90;0.90;;;4.70;99.90;;;;;;5053525;28;20216;-60
2021/12/11 03:50:12;;;;;;;1.00;1.00;;;4.70;99.90;;;;;;5058425;28;20252;-60
2021/12/11 03:52:40;;;;;;;1.00;1.00;;;4.70;99.90;;;;;;5047458;28;20271;-60
2021/12/11 03:55:09;;;;;;;1.07;1.07;;;4.70;99.90;;;;;;5038034;28;20204;-60
2021/12/11 03:57:37;;;;;;;1.00;1.00;;;4.70;99.90;;;;;;5030948;28;20576;-60
2021/12/11 04:00:10;;;;;;;1.00;1.00;;;4.70;99.90;;;;;;5034061;28;20197;-60
2021/12/11 04:02:38;;;;;;;1.03;1.03;;;4.70;99.90;;;;;;5031363;28;20303;-59
2021/12/11 04:05:07;;;;;;;1.10;1.10;;;4.60;99.90;;;;;;5031905;28;20216;-60
2021/12/11 04:07:37;;;;;;;1.10;1.10;;;4.60;99.90;;;;;;5031407;28;20578;-60
2021/12/11 04:10:07;;;;;;;1.00;1.00;;;4.60;99.90;;;;;;5032223;28;20216;-60
2021/12/11 04:12:34;;;;;;;1.00;1.00;;;4.50;99.90;;;;;;5037237;28;20605;-60
2021/12/11 04:15:01;;;;;;;1.10;1.10;;;4.50;99.90;;;;;;5036059;28;20200;-60
2021/12/11 04:17:30;;;;;;;1.00;1.00;;;4.50;99.90;;;;;;5038026;28;20201;-59
2021/12/11 04:20:03;;;;;;;1.13;1.10;;;4.50;99.90;;;;;;5041386;28;20200;-60
2021/12/11 04:22:30;;;;;;;1.00;1.00;;;4.50;99.90;;;;;;5038039;28;20228;-60
2021/12/11 04:24:58;;;;;;;1.00;1.00;;;4.50;99.90;;;;;;5036891;28;20213;-60
2021/12/11 04:27:25;;;;;;;1.10;1.10;;;4.40;99.90;;;;;;5036027;28;20691;-60
2021/12/11 04:29:53;;;;;;;1.10;1.10;;;4.40;99.90;;;;;;5036602;28;20230;-60
2021/12/11 04:32:21;;;;;;;1.10;1.10;;;4.40;99.90;;;;;;5036092;28;20749;-59
2021/12/11 04:34:50;;;;;;;1.00;1.00;;;4.40;99.90;;;;;;5044376;28;20201;-59
2021/12/11 04:37:22;;;;;;;1.00;1.00;;;4.50;99.90;;;;;;5036572;28;20228;-61
2021/12/11 04:39:58;;;;;;;1.10;1.10;;;4.50;99.90;;;;;;5041779;28;20246;-59
2021/12/11 04:42:36;;;;;;;1.07;1.07;;;4.50;99.90;;;;;;5036010;28;20586;-60
2021/12/11 04:45:04;;;;;;;1.00;1.00;;;4.50;99.90;;;;;;5036294;28;20201;-61
2021/12/11 04:47:37;;;;;;;1.03;1.03;;;4.50;99.90;;;;;;5036789;28;20224;-60
2021/12/11 04:50:17;;;;;;;1.17;1.17;;;4.50;99.90;;;;;;5036299;28;20217;-60
2021/12/11 04:52:53;;;;;;;1.10;1.10;;;4.60;99.90;;;;;;5042820;28;20227;-60
2021/12/11 04:55:33;;;;;;;1.07;1.07;;;4.60;99.90;;;;;;5036213;28;20209;-60
2021/12/11 04:58:22;;;;;;;1.00;1.00;;;4.60;99.90;;;;;;5041700;28;20231;-60
2021/12/11 05:01:01;;;;;;;0.90;0.90;;;4.60;99.90;;;;;;5041320;28;20693;-61
2021/12/11 05:03:50;;;;;;;1.10;1.10;;;4.60;99.90;;;;;;5036260;28;20257;-60
2021/12/11 05:06:34;;;;;;;1.30;1.30;;;4.60;99.90;;;;;;5037777;28;20201;-61
2021/12/11 05:11:54;;;;;;;1.20;1.20;;;4.60;99.90;;;;;;5045433;28;20220;-61
2021/12/11 05:14:23;;;;;;;1.40;1.40;;;4.50;99.90;;;;;;5042955;28;20200;-60
2021/12/11 05:16:51;;;;;;;1.30;1.30;;;4.50;99.90;;;;;;5044654;28;20254;-59
2021/12/11 05:19:18;;;;;;;1.30;1.30;;;4.50;99.90;;;;;;5038913;28;20209;-60
2021/12/11 05:21:47;;;;;;;1.50;1.50;;;4.50;99.90;;;;;;5037204;28;20229;-60
2021/12/11 05:24:16;;;;;;;1.27;1.27;;;4.50;99.90;;;;;;5064100;22;20249;-66
2021/12/11 05:26:43;;;;;;;1.27;1.27;;;4.50;99.90;;;;;;5074287;28;20207;-68
2021/12/11 05:29:11;;;;;;;1.20;1.20;;;4.50;99.90;;;;;;5075238;28;20223;-65
2021/12/11 05:31:38;;;;;;;1.47;1.47;;;4.60;99.90;;;;;;5075097;28;20645;-67
2021/12/11 05:34:06;;;;;;;1.30;1.30;;;4.60;99.90;;;;;;5073834;28;20223;-65
2021/12/11 05:36:35;;;;;;;1.23;1.23;;;4.60;99.90;;;;;;5074423;28;20265;-66
2021/12/11 05:39:08;;;;;;;1.10;1.10;;;4.60;99.90;;;;;;5074358;28;20211;-67
2021/12/11 05:41:36;;;;;;;1.20;1.20;;;4.70;99.90;;;;;;5073916;28;20183;-64
2021/12/11 05:44:03;;;;;;;1.20;1.20;;;4.60;99.90;;;;;;5073787;28;20736;-66
2021/12/11 05:46:30;;;;;;;1.30;1.30;;;4.60;99.90;;;;;;5074448;28;20221;-67
2021/12/11 05:48:57;;;;;;;1.20;1.20;;;4.60;99.90;;;;;;5074691;28;20293;-65
2021/12/11 05:51:25;;;;;;;1.33;1.33;;;4.60;99.90;;;;;;5066229;28;20334;-66
2021/12/11 05:53:56;;;;;;;1.37;1.37;;;4.50;99.90;;;;;;5054555;28;20705;-66
2021/12/11 05:56:25;;;;;;;1.53;1.53;;;4.50;99.90;;;;;;5054330;28;20219;-66
2021/12/11 05:58:58;;;;;;;1.40;1.40;;;4.50;99.90;;;;;;5053735;28;20742;-66
2021/12/11 06:01:33;;;;;;;1.50;1.50;;;4.50;99.90;;;;;;5053472;28;20353;-66
2021/12/11 06:04:03;;;;;;;1.50;1.50;;;4.50;99.90;;;;;;5053925;28;20801;-66
2021/12/11 06:06:30;;;;;;;1.40;1.40;;;4.40;99.90;;;;;;5054792;28;20301;-66
2021/12/11 06:08:58;;;;;;;1.50;1.50;;;4.40;99.90;;;;;;5055245;28;20231;-67
2021/12/11 06:11:26;;;;;;;1.60;1.50;;;4.40;99.90;;;;;;5056224;28;20266;-65
2021/12/11 06:13:53;;;;;;;1.70;1.60;;;4.40;99.90;;;;;;5056072;28;20625;-67
2021/12/11 06:16:20;;;;;;;2.00;1.90;;;4.40;99.90;;;;;;5056665;28;20307;-68
2021/12/11 06:18:47;;;;;;;1.73;1.73;;;4.40;99.90;;;;;;5057098;28;20242;-66
2021/12/11 06:21:15;;;;;;;2.00;1.90;;;4.60;99.90;;;;;;5057530;28;20199;-65
2021/12/11 06:23:42;;;;;;;1.90;1.80;;;4.40;99.90;;;;;;5063405;28;20228;-65
2021/12/11 06:26:09;;;;;;;1.70;1.70;;;4.40;99.90;;;;;;5058199;28;20581;-66
2021/12/11 06:28:39;;;;;;;1.60;1.60;;;4.40;99.90;;;;;;5062759;28;20231;-64
2021/12/11 06:31:07;;;;;;;2.00;1.90;;;4.50;99.90;;;;;;5072080;28;20258;-67
2021/12/11 06:33:35;;;;;;;2.10;2.00;;;4.50;99.90;;;;;;5065913;28;20220;-66
2021/12/11 06:36:06;;;;;;;2.07;1.97;;;4.60;99.90;;;;;;5063350;28;20211;-65
2021/12/11 06:38:35;;;;;;;2.00;1.90;;;4.50;99.90;;;;;;5057539;28;20194;-65
2021/12/11 06:41:03;;;;;;;1.83;1.73;;;4.60;99.90;;;;;;5065185;28;20506;-66
2021/12/11 06:43:30;;;;;;;2.30;2.20;;;4.60;99.90;;;;;;5064488;28;20270;-66
2021/12/11 06:45:59;;;;;;;2.00;1.90;;;4.60;99.90;;;;;;5058948;28;20295;-66
2021/12/11 06:48:27;;;;;;;2.20;2.10;;;4.60;99.90;;;;;;5053533;28;20235;-66
2021/12/11 06:50:55;;;;;;;2.10;2.00;;;4.60;99.90;;;;;;5053506;28;20247;-66
2021/12/11 06:53:26;;;;;;;2.40;2.30;;;4.50;99.90;;;;;;5053471;28;20224;-67
2021/12/11 06:55:53;;;;;;;2.23;2.13;;;4.60;99.90;;;;;;5053134;28;20235;-65
2021/12/11 06:58:20;;;;;;;2.20;2.10;;;4.60;99.90;;;;;;5054323;28;20679;-66
2021/12/11 07:00:48;;;;;;;2.10;2.00;;;4.50;99.90;;;;;;5053292;28;20200;-68
2021/12/11 07:03:16;;;;;;;2.20;2.10;;;4.60;99.90;;;;;;5054114;28;20251;-66
2021/12/11 07:05:43;;;;;;;2.17;2.07;;;4.60;99.90;;;;;;5054609;28;20242;-67
2021/12/11 07:08:12;;;;;;;2.10;2.00;;;4.60;99.90;;;;;;5054798;28;20310;-67
2021/12/11 07:10:39;;;;;;;2.07;1.97;;;4.60;99.90;;;;;;5066705;28;20216;-65
2021/12/11 07:13:06;;;;;;;2.00;1.90;;;4.60;99.90;;;;;;5056475;28;20234;-65
2021/12/11 07:15:34;;;;;;;2.10;2.00;;;4.60;99.90;;;;;;5053662;28;20236;-67
2021/12/11 07:18:01;;;;;;;2.17;2.07;;;4.60;99.90;;;;;;5053811;28;20204;-68
2021/12/11 07:20:29;;;;;;;2.13;2.03;;;4.70;99.90;;;;;;5053386;28;20233;-70
2021/12/11 07:22:56;;;;;;;2.20;2.10;;;4.70;99.90;;;;;;5052988;28;20250;-67
2021/12/11 07:25:28;;;;;;;2.10;2.00;;;4.70;99.90;;;;;;5054156;28;20187;-68
2021/12/11 07:27:57;;;;;;;1.70;1.70;;;4.70;99.90;;;;;;5053877;28;20232;-67
2021/12/11 07:30:24;;;;;;;2.03;1.93;;;4.70;99.90;;;;;;5054714;28;20291;-70
2021/12/11 07:32:53;;;;;;;1.90;1.80;;;4.70;99.90;;;;;;5055735;28;20263;-67
2021/12/11 07:35:21;;;;;;;1.77;1.70;;;4.70;99.90;;;;;;5053626;28;20212;-69
2021/12/11 07:37:51;;;;;;;2.00;1.90;;;4.70;99.90;;;;;;5054394;28;20263;-67
2021/12/11 07:40:19;;;;;;;1.90;1.80;;;4.80;99.90;;;;;;5056215;28;20212;-67
2021/12/11 07:42:47;;;;;;;1.50;1.50;;;4.80;99.90;;;;;;5057227;28;20243;-68
2021/12/11 07:45:15;;;;;;;1.53;1.50;;;4.80;99.90;;;;;;5057917;28;20238;-68
2021/12/11 07:47:42;;;;;;;1.80;1.70;;;4.80;99.90;;;;;;5057260;28;20690;-69
2021/12/11 07:50:11;;;;;;;1.50;1.50;;;4.90;99.90;;;;;;5062402;28;20226;-66
2021/12/11 07:52:38;;;;;;;1.73;1.63;;;4.90;99.90;;;;;;5070877;28;20223;-66
2021/12/11 07:55:09;;;;;;;1.60;1.60;;;4.90;99.90;;;;;;5071356;28;20203;-67
2021/12/11 07:57:36;;;;;;;1.37;1.37;;;4.80;99.90;;;;;;5070389;28;20196;-69
2021/12/11 08:00:05;;;;;;;1.40;1.40;;;4.80;99.90;;;;;;5069615;28;20200;-67
2021/12/11 08:02:32;;;;;;;1.47;1.40;;;4.90;99.90;;;;;;5065676;28;20211;-69
2021/12/11 08:04:59;;;;;;;1.40;1.40;;;4.90;99.90;;;;;;5055743;28;20210;-70
2021/12/11 08:07:26;;;;;;;1.40;1.40;;;4.90;99.90;;;;;;5055673;28;20288;-69
2021/12/11 08:09:53;;;;;;;1.40;1.40;;;4.90;99.90;;;;;;5055117;28;20200;-68
2021/12/11 08:12:21;;;;;;;1.40;1.40;;;4.80;99.90;;;;;;5055826;28;20238;-69
2021/12/11 08:14:50;;;;;;;1.50;1.40;;;4.90;99.90;;;;;;5055841;28;20271;-68
2021/12/11 08:17:17;;;;;;;1.50;1.50;;;4.90;99.90;;;;;;5057670;28;20642;-68
2021/12/11 08:19:44;;;;;;;1.23;1.23;;;4.90;99.90;;;;;;5064230;28;20257;-68
2021/12/11 08:22:12;;;;;;;1.60;1.50;;;4.80;99.90;;;;;;5066529;28;20200;-69
2021/12/11 08:24:39;;;;;;;1.50;1.50;;;4.90;99.90;;;;;;5065237;28;20215;-69
2021/12/11 08:27:11;;;;;;;1.43;1.43;;;4.80;99.90;;;;;;5057016;28;20210;-68
2021/12/11 08:29:41;;;;;;;1.40;1.40;;;4.80;99.90;;;;;;5053079;28;20577;-68
2021/12/11 08:32:09;;;;;;;1.40;1.40;;;4.80;99.90;;;;;;5052930;28;20219;-68
2021/12/11 08:34:37;;;;;;;1.40;1.40;;;4.90;99.90;;;;;;5053374;28;20206;-69
2021/12/11 08:37:06;;;;;;;1.40;1.40;;;4.90;99.90;;;;;;5052550;28;20208;-67
2021/12/11 08:39:34;;;;;;;1.50;1.50;;;5.00;99.90;;;;;;5055688;28;20242;-69
2021/12/11 08:42:02;;;;;;;1.40;1.40;;;5.00;99.90;;;;;;5060382;28;20279;-69
2021/12/11 08:44:34;;;;;;;1.50;1.50;;;5.00;99.90;;;;;;5057388;28;20208;-68
2021/12/11 08:47:07;;;;;;;1.50;1.50;;;5.00;99.90;;;;;;5054428;28;20204;-69
2021/12/11 08:49:36;;;;;;;1.40;1.40;;;5.10;99.90;;;;;;5067816;28;20192;-67
2021/12/11 08:52:08;;;;;;;1.33;1.33;;;5.10;99.90;;;;;;5054165;28;20220;-68
2021/12/11 08:54:40;;;;;;;1.50;1.50;;;5.10;99.90;;;;;;5053443;28;20627;-68
2021/12/11 08:57:11;;;;;;;1.60;1.60;;;5.10;99.90;;;;;;5052712;28;20188;-68
2021/12/11 08:59:42;;;;;;;1.40;1.40;;;5.10;99.90;;;;;;5056231;28;20211;-68
2021/12/11 09:02:13;;;;;;;1.50;1.50;;;5.10;99.90;;;;;;5052887;28;20262;-68
2021/12/11 09:04:45;;;;;;;2.70;2.60;;;5.10;99.90;;;;;;5056251;28;20242;-69
2021/12/11 09:07:23;;;;;;;1.87;1.77;;;5.10;99.90;;;;;;5059441;28;20271;-68
2021/12/11 09:09:53;;;;;;;2.10;2.00;;;5.30;99.90;;;;;;5058296;28;20272;-68
2021/12/11 09:12:25;;;;;;;2.30;2.20;;;5.10;99.90;;;;;;5056365;28;20252;-68
2021/12/11 09:14:56;;;;;;;2.90;2.70;;;5.10;99.90;;;;;;5054287;28;20200;-66
2021/12/11 09:17:29;;;;;;;2.07;1.97;;;5.10;99.90;;;;;;5056515;28;20184;-67
2021/12/11 09:20:00;;;;;;;1.90;1.80;;;5.10;99.90;;;;;;5055003;28;20274;-67
2021/12/11 09:22:30;;;;;;;2.00;1.90;;;5.10;99.90;;;;;;5055288;28;20228;-67
2021/12/11 09:25:06;;;;;;;1.97;1.87;;;5.10;99.90;;;;;;5056004;28;20735;-68
2021/12/11 09:27:40;;;;;;;1.40;1.40;;;5.20;99.90;;;;;;5057173;28;20230;-69
2021/12/11 09:30:12;;;;;;;1.40;1.40;;;5.20;99.90;;;;;;5057158;28;20638;-68
2021/12/11 09:32:44;;;;;;;1.80;1.70;;;5.30;99.90;;;;;;5055028;28;20564;-68
2021/12/11 09:35:16;;;;;;;1.40;1.40;;;5.40;99.90;;;;;;5055202;28;20402;-68
2021/12/11 09:37:45;;;;;;;1.77;1.67;;;5.40;99.90;;;;;;5054606;28;20575;-70
2021/12/11 09:40:16;;;;;;;1.70;1.60;;;5.40;99.90;;;;;;5052058;28;20208;-69
2021/12/11 09:42:43;;;;;;;1.90;1.80;;;5.50;99.90;;;;;;5054069;28;20306;-68
2021/12/11 09:45:15;;;;;;;1.40;1.40;;;5.50;99.90;;;;;;5053757;28;20291;-69
2021/12/11 09:47:50;;;;;;;1.30;1.30;;;5.60;99.90;;;;;;5054513;28;20682;-68
2021/12/11 09:50:22;;;;;;;1.20;1.20;;;5.60;99.90;;;;;;5055389;28;20184;-67
2021/12/11 09:52:50;;;;;;;1.30;1.30;;;5.70;99.90;;;;;;5054307;28;20223;-68
2021/12/11 09:55:22;;;;;;;1.30;1.30;;;5.70;99.90;;;;;;5053266;28;20287;-69
2021/12/11 09:57:55;;;;;;;1.30;1.30;;;5.80;99.90;;;;;;5056838;28;20291;-68
2021/12/11 10:00:36;;;;;;;1.20;1.20;;;5.90;99.90;;;;;;5056004;28;20570;-68
2021/12/11 10:03:07;;;;;;;1.30;1.30;;;5.90;99.90;;;;;;5056158;28;20215;-69
2021/12/11 10:05:43;;;;;;;1.30;1.30;;;5.90;99.90;;;;;;5058348;28;20196;-69
2021/12/11 10:08:28;;;;;;;1.17;1.17;;;6.00;99.90;;;;;;5056017;28;20561;-68
2021/12/11 10:11:04;;;;;;;1.20;1.20;;;5.90;99.90;;;;;;5052405;28;20204;-68
2021/12/11 10:13:32;;;;;;;1.40;1.30;;;6.00;99.90;;;;;;5054125;28;20301;-68
2021/12/11 10:16:02;;;;;;;1.17;1.17;;;6.00;99.90;;;;;;5052251;28;20278;-68
2021/12/11 10:18:30;;;;;;;1.23;1.23;;;6.00;99.90;;;;;;5055288;28;20200;-67
2021/12/11 10:21:01;;;;;;;1.10;1.10;;;6.00;99.90;;;;;;5052312;28;20696;-67
2021/12/11 10:23:30;;;;;;;1.10;1.10;;;6.10;99.90;;;;;;5053973;28;20258;-68
2021/12/11 10:26:00;;;;;;;1.20;1.20;;;6.40;99.90;;;;;;5048582;28;20296;-67
2021/12/11 10:28:29;;;;;;;1.30;1.30;;;6.60;99.90;;;;;;5054360;28;20751;-68
2021/12/11 10:31:02;;;;;;;1.27;1.27;;;6.70;99.90;;;;;;5054537;28;20624;-68
2021/12/11 10:33:32;;;;;;;1.17;1.17;;;6.70;99.90;;;;;;5055636;28;20334;-68
2021/12/11 10:36:04;;;;;;;1.00;1.00;;;6.70;99.90;;;;;;5052441;28;20617;-67
2021/12/11 10:38:31;;;;;;;1.10;1.10;;;6.70;99.90;;;;;;5054847;28;20196;-68
2021/12/11 10:41:01;;;;;;;1.27;1.27;;;6.70;99.90;;;;;;5052802;28;20610;-67
2021/12/11 10:43:32;;;;;;;1.13;1.13;;;6.50;99.90;;;;;;5054158;28;20298;-68
2021/12/11 10:46:01;;;;;;;1.20;1.20;;;6.50;99.90;;;;;;5056121;28;20733;-68
2021/12/11 10:48:32;;;;;;;1.30;1.30;;;6.50;99.90;;;;;;5056505;28;20292;-69
2021/12/11 10:51:03;;;;;;;1.43;1.20;;;6.50;99.90;;;;;;5055196;28;20192;-68
2021/12/11 10:53:31;;;;;;;1.23;1.23;;;6.40;99.90;;;;;;5056043;28;20270;-68
2021/12/11 10:56:01;;;;;;;1.00;1.00;;;6.30;99.90;;;;;;5055348;28;20766;-68
2021/12/11 10:58:33;;;;;;;1.10;1.10;;;6.30;99.90;;;;;;5058037;28;20287;-68
2021/12/11 11:01:07;;;;;;;1.00;1.00;;;6.40;99.90;;;;;;5054842;28;20227;-69
2021/12/11 11:03:36;;;;;;;1.23;1.23;;;6.50;99.90;;;;;;5056263;28;20243;-69
2021/12/11 11:06:04;;;;;;;1.20;1.20;;;6.70;99.90;;;;;;5056823;28;20346;-68
2021/12/11 11:08:31;;;;;;;1.30;1.30;;;6.50;99.90;;;;;;5059843;28;20200;-69
2021/12/11 11:11:04;;;;;;;1.30;1.30;;;6.50;99.90;;;;;;5056307;28;20686;-68
2021/12/11 11:13:31;;;;;;;1.40;1.40;;;6.60;99.90;;;;;;5056580;28;20247;-67
2021/12/11 11:15:58;;;;;;;1.30;1.30;;;6.50;99.90;;;;;;5056064;28;20211;-69
2021/12/11 11:18:29;;;;;;;1.40;1.40;;;6.40;99.90;;;;;;5055254;28;20662;-68
2021/12/11 11:20:58;;;;;;;1.50;1.50;;;6.30;99.90;;;;;;5053929;28;20235;-67
2021/12/11 11:23:26;;;;;;;1.10;1.10;;;6.00;99.90;;;;;;5065851;22;20224;-62
2021/12/11 11:25:55;;;;;;;1.20;1.20;;;5.90;99.90;;;;;;5050070;28;20235;-61
2021/12/11 11:28:26;;;;;;;1.40;1.40;;;5.90;99.90;;;;;;5050966;28;20232;-62
2021/12/11 11:30:58;;;;;;;1.30;1.30;;;6.00;99.90;;;;;;5050900;28;20200;-61
2021/12/11 11:33:27;;;;;;;1.40;1.40;;;6.00;99.90;;;;;;5054240;28;20635;-61
2021/12/11 11:35:55;;;;;;;1.50;1.40;;;6.10;99.90;;;;;;5071109;28;20253;-61
2021/12/11 11:38:26;;;;;;;1.70;1.60;;;6.00;99.90;;;;;;5070685;28;20668;-61
2021/12/11 11:40:57;;;;;;;1.50;1.50;;;5.90;99.90;;;;;;5071413;28;20188;-62
2021/12/11 11:43:25;;;;;;;1.73;1.63;;;5.80;99.90;;;;;;5071151;28;20692;-60
2021/12/11 11:45:53;;;;;;;1.60;1.60;;;5.80;99.90;;;;;;5072829;28;20238;-62
2021/12/11 11:48:23;;;;;;;1.50;1.50;;;5.90;99.90;;;;;;5072834;28;20207;-61
2021/12/11 11:50:53;;;;;;;1.37;1.37;;;6.00;99.90;;;;;;5071037;28;20671;-60
2021/12/11 11:53:24;;;;;;;1.77;1.67;;;5.90;99.90;;;;;;5070641;28;20227;-61
2021/12/11 11:55:56;;;;;;;1.70;1.60;;;6.00;99.90;;;;;;5070904;28;20226;-60
2021/12/11 11:58:23;;;;;;;1.40;1.40;;;6.00;99.90;;;;;;5072245;28;20206;-61
2021/12/11 12:00:53;;;;;;;1.43;1.43;;;6.00;99.90;;;;;;5071147;28;20286;-60
2021/12/11 12:03:23;;;;;;;1.33;1.33;;;6.00;99.90;;;;;;5071409;28;20222;-60
2021/12/11 12:05:55;;;;;;;1.50;1.50;;;6.00;99.90;;;;;;5051441;28;20204;-60
2021/12/11 12:08:22;;;;;;;1.40;1.40;;;6.00;99.90;;;;;;5050374;28;20294;-62
2021/12/11 12:10:50;;;;;;;1.50;1.50;;;6.00;99.90;;;;;;5050656;28;20208;-60
2021/12/11 12:13:19;;;;;;;1.43;1.43;;;6.00;99.90;;;;;;5051730;28;20236;-61
2021/12/11 12:15:48;;;;;;;1.30;1.30;;;6.10;99.90;;;;;;5051439;28;20207;-62
2021/12/11 12:18:17;;;;;;;1.50;1.50;;;6.10;99.90;;;;;;5066431;28;20746;-61
2021/12/11 12:20:45;;;;;;;1.50;1.50;;;6.10;99.90;;;;;;5071266;28;20195;-61
2021/12/11 12:23:14;;;;;;;1.40;1.40;;;6.00;99.90;;;;;;5070770;28;20215;-65
2021/12/11 12:25:44;;;;;;;1.23;1.23;;;5.80;99.90;;;;;;5070866;28;20205;-61
2021/12/11 12:28:11;;;;;;;1.40;1.40;;;5.70;99.90;;;;;;5072411;28;20246;-61
2021/12/11 12:30:42;;;;;;;1.40;1.40;;;5.80;99.90;;;;;;5068808;28;20200;-61
2021/12/11 12:33:11;;;;;;;1.33;1.33;;;5.80;99.90;;;;;;5074855;28;20677;-61
2021/12/11 12:35:39;;;;;;;1.30;1.30;;;5.90;99.90;;;;;;5074233;28;20210;-61
2021/12/11 12:38:09;;;;;;;1.40;1.40;;;5.90;99.90;;;;;;5072636;28;20286;-61
2021/12/11 12:40:41;;;;;;;1.23;1.23;;;6.00;99.90;;;;;;5074591;28;20190;-61
2021/12/11 12:43:20;;;;;;;1.23;1.23;;;6.10;99.90;;;;;;5074354;28;20192;-62
2021/12/11 12:45:50;;;;;;;1.40;1.40;;;6.10;99.90;;;;;;5074519;28;20199;-60
2021/12/11 12:48:20;;;;;;;1.80;1.70;;;6.20;99.90;;;;;;5071577;28;20191;-62
2021/12/11 12:50:54;;;;;;;1.30;1.30;;;6.20;99.90;;;;;;5074041;28;20709;-61
2021/12/11 12:53:23;;;;;;;1.53;1.53;;;6.00;99.90;;;;;;5067161;28;20653;-61
2021/12/11 12:55:55;;;;;;;1.27;1.27;;;5.80;99.90;;;;;;5074173;28;20199;-62
2021/12/11 12:58:25;;;;;;;1.40;1.40;;;5.80;99.90;;;;;;5072623;28;20611;-61
2021/12/11 13:01:00;;;;;;;1.50;1.50;;;5.90;99.90;;;;;;5074576;28;20286;-61
2021/12/11 13:03:30;;;;;;;1.30;1.30;;;6.10;99.90;;;;;;5073968;28;20207;-61
2021/12/11 13:06:00;;;;;;;1.30;1.30;;;6.10;99.90;;;;;;5073771;28;20276;-60
2021/12/11 13:08:30;;;;;;;1.33;1.33;;;6.20;99.90;;;;;;5071318;28;20680;-60
2021/12/11 13:11:06;;;;;;;1.30;1.30;;;6.30;99.90;;;;;;5075042;28;20191;-60
2021/12/11 13:13:33;;;;;;;1.47;1.47;;;6.40;99.90;;;;;;5073809;28;20223;-60
2021/12/11 13:16:04;;;;;;;1.40;1.40;;;6.40;99.90;;;;;;5074646;28;20282;-62